createdAt,value
2022-08-27T00:00:09.757Z,7.43
2022-08-27T00:03:00.109Z,7.60
2022-08-27T00:05:29.681Z,7.28
2022-08-27T00:08:01.245Z,8.82
2022-08-27T00:10:30.890Z,7.75
2022-08-27T00:13:00.678Z,6.78
2022-08-27T00:15:30.458Z,7.82
2022-08-27T00:17:59.945Z,7.75
2022-08-27T00:20:29.953Z,6.13
2022-08-27T00:23:01.076Z,6.85
2022-08-27T00:25:31.185Z,7.07
2022-08-27T00:28:00.536Z,6.70
2022-08-27T00:30:30.106Z,7.28
2022-08-27T00:33:00.054Z,8.13
2022-08-27T00:35:29.671Z,6.57
2022-08-27T00:38:01.173Z,6.23
2022-08-27T00:40:31.457Z,7.30
2022-08-27T00:43:03.457Z,6.15
2022-08-27T00:45:39.221Z,6.63
2022-08-27T00:48:11.088Z,7.35
2022-08-27T00:50:45.530Z,6.20
2022-08-27T00:53:18.633Z,6.82
2022-08-27T00:55:52.844Z,6.47
2022-08-27T00:58:28.303Z,7.60
2022-08-27T01:00:58.794Z,7.18
2022-08-27T01:03:28.885Z,6.25
2022-08-27T01:06:02.369Z,7.60
2022-08-27T01:08:38.822Z,7.43
2022-08-27T01:11:09.049Z,6.65
2022-08-27T01:13:40.739Z,6.20
2022-08-27T01:16:35.260Z,6.80
2022-08-27T01:19:07.796Z,6.93
2022-08-27T01:21:43.032Z,6.53
2022-08-27T01:24:25.598Z,6.75
2022-08-27T01:26:56.682Z,6.63
2022-08-27T01:31:59.313Z,5.93
2022-08-27T01:34:28.833Z,6.18
2022-08-27T01:36:58.920Z,5.68
2022-08-27T01:39:29.835Z,6.25
2022-08-27T01:42:06.481Z,6.05
2022-08-27T01:44:49.661Z,6.88
2022-08-27T01:47:21.194Z,5.60
2022-08-27T01:49:50.968Z,6.63
2022-08-27T01:54:52.427Z,6.23
2022-08-27T01:57:26.033Z,6.05
2022-08-27T01:59:58.288Z,6.63
2022-08-27T02:02:29.047Z,6.93
2022-08-27T02:07:27.496Z,6.57
2022-08-27T02:09:58.773Z,6.25
2022-08-27T02:12:28.130Z,6.20
2022-08-27T02:14:57.717Z,6.13
2022-08-27T02:17:27.341Z,5.57
2022-08-27T02:19:57.188Z,6.17
2022-08-27T02:22:26.958Z,7.20
2022-08-27T02:24:57.822Z,6.10
2022-08-27T02:27:27.284Z,6.25
2022-08-27T02:29:57.345Z,6.10
2022-08-27T02:32:32.163Z,5.75
2022-08-27T02:35:03.591Z,5.88
2022-08-27T02:37:33.225Z,6.43
2022-08-27T02:40:05.629Z,6.22
2022-08-27T02:42:35.085Z,5.85
2022-08-27T02:45:05.458Z,6.90
2022-08-27T02:47:35.438Z,6.32
2022-08-27T02:50:05.761Z,5.78
2022-08-27T02:52:36.920Z,5.85
2022-08-27T02:55:09.253Z,6.38
2022-08-27T02:57:39.764Z,7.97
2022-08-27T03:00:13.102Z,6.53
2022-08-27T03:02:43.277Z,5.38
2022-08-27T03:05:14.766Z,7.00
2022-08-27T03:07:45.177Z,6.32
2022-08-27T03:10:19.551Z,6.72
2022-08-27T03:12:49.574Z,6.35
2022-08-27T03:15:21.188Z,7.73
2022-08-27T03:18:08.074Z,6.50
2022-08-27T03:20:41.117Z,6.53
2022-08-27T03:23:11.958Z,7.10
2022-08-27T03:25:46.239Z,6.22
2022-08-27T03:28:23.230Z,7.32
2022-08-27T03:30:54.517Z,7.20
2022-08-27T03:33:24.230Z,8.55
2022-08-27T03:35:53.897Z,6.90
2022-08-27T03:38:23.497Z,7.47
2022-08-27T03:40:55.273Z,6.43
2022-08-27T03:43:25.542Z,6.47
2022-08-27T03:46:05.591Z,7.13
2022-08-27T03:48:35.636Z,6.95
2022-08-27T03:51:08.230Z,6.43
2022-08-27T03:53:38.301Z,7.88
2022-08-27T03:56:10.381Z,6.97
2022-08-27T03:58:40.469Z,8.02
2022-08-27T04:01:11.011Z,6.65
2022-08-27T04:03:40.423Z,8.15
2022-08-27T04:06:10.020Z,7.53
2022-08-27T04:08:39.978Z,8.38
2022-08-27T04:11:11.141Z,8.52
2022-08-27T04:13:41.606Z,7.68
2022-08-27T04:16:11.032Z,7.70
2022-08-27T04:18:40.690Z,6.68
2022-08-27T04:21:13.168Z,7.53
2022-08-27T04:23:44.466Z,7.25
2022-08-27T04:26:17.043Z,7.32
2022-08-27T04:28:48.842Z,7.22
2022-08-27T04:31:21.419Z,7.35
2022-08-27T04:33:51.497Z,6.72
2022-08-27T04:36:22.550Z,7.50
2022-08-27T04:38:52.014Z,7.32
2022-08-27T04:41:25.381Z,7.30
2022-08-27T04:43:57.320Z,7.20
2022-08-27T04:46:29.652Z,7.10
2022-08-27T04:49:00.488Z,7.13
2022-08-27T04:51:31.677Z,7.35
2022-08-27T04:56:32.835Z,7.10
2022-08-27T04:59:04.387Z,7.15
2022-08-27T05:01:34.161Z,7.25
2022-08-27T05:04:03.654Z,7.28
2022-08-27T05:06:33.481Z,6.93
2022-08-27T05:09:03.083Z,7.60
2022-08-27T05:11:34.995Z,7.97
2022-08-27T05:14:05.947Z,7.00
2022-08-27T05:16:36.640Z,6.88
2022-08-27T05:19:09.333Z,6.97
2022-08-27T05:21:41.410Z,7.90
2022-08-27T05:24:11.365Z,7.63
2022-08-27T05:26:42.328Z,7.28
2022-08-27T05:29:12.235Z,9.60
2022-08-27T05:31:42.284Z,8.13
2022-08-27T05:34:18.685Z,8.00
2022-08-27T05:36:52.076Z,7.57
2022-08-27T05:39:21.568Z,8.48
2022-08-27T05:41:53.928Z,7.63
2022-08-27T05:44:40.515Z,8.43
2022-08-27T05:47:10.589Z,8.43
2022-08-27T05:49:40.701Z,7.03
2022-08-27T05:52:11.718Z,7.78
2022-08-27T05:54:42.105Z,7.57
2022-08-27T05:57:13.135Z,7.22
2022-08-27T05:59:56.461Z,6.75
2022-08-27T06:02:26.448Z,7.70
2022-08-27T06:04:56.704Z,7.20
2022-08-27T06:07:26.053Z,6.70
2022-08-27T06:09:55.379Z,7.93
2022-08-27T06:12:27.145Z,7.50
2022-08-27T06:14:57.969Z,6.80
2022-08-27T06:17:28.065Z,6.93
2022-08-27T06:19:58.015Z,6.97
2022-08-27T06:22:27.419Z,7.60
2022-08-27T06:24:57.473Z,7.50
2022-08-27T06:27:28.264Z,7.22
2022-08-27T06:29:57.851Z,7.25
2022-08-27T06:32:27.457Z,7.30
2022-08-27T06:34:56.885Z,7.18
2022-08-27T06:37:27.546Z,7.40
2022-08-27T06:39:56.925Z,7.47
2022-08-27T06:42:27.805Z,7.47
2022-08-27T06:44:57.449Z,7.95
2022-08-27T06:47:26.885Z,7.22
2022-08-27T06:49:56.494Z,6.72
2022-08-27T06:52:26.366Z,6.93
2022-08-27T06:54:55.868Z,6.87
2022-08-27T06:57:25.248Z,8.53
2022-08-27T06:59:56.441Z,6.75
2022-08-27T07:02:25.844Z,7.50
2022-08-27T07:04:56.475Z,6.63
2022-08-27T07:07:28.007Z,6.88
2022-08-27T07:10:06.087Z,7.40
2022-08-27T07:12:35.477Z,6.82
2022-08-27T07:15:07.289Z,7.55
2022-08-27T07:17:36.982Z,7.85
2022-08-27T07:20:08.288Z,7.55
2022-08-27T07:22:38.030Z,7.38
2022-08-27T07:25:08.324Z,7.53
2022-08-27T07:30:13.362Z,7.70
2022-08-27T07:32:43.041Z,7.32
2022-08-27T07:37:43.420Z,7.27
2022-08-27T07:43:01.574Z,7.72
2022-08-27T07:45:32.597Z,8.07
2022-08-27T07:48:02.701Z,7.82
2022-08-27T07:50:32.177Z,6.78
2022-08-27T07:53:01.761Z,8.18
2022-08-27T07:58:01.354Z,8.75
2022-08-27T08:03:02.868Z,7.70
2022-08-27T08:05:32.271Z,7.03
2022-08-27T08:08:01.715Z,6.90
2022-08-27T08:10:35.338Z,7.50
2022-08-27T08:13:05.679Z,6.90
2022-08-27T08:15:38.092Z,6.68
2022-08-27T08:18:07.541Z,6.88
2022-08-27T08:20:57.072Z,7.35
2022-08-27T08:23:26.678Z,7.13
2022-08-27T08:25:58.045Z,8.38
2022-08-27T08:28:27.993Z,7.30
2022-08-27T08:31:01.753Z,7.68
2022-08-27T08:33:32.183Z,7.75
2022-08-27T08:36:06.634Z,7.75
2022-08-27T08:38:36.364Z,7.93
2022-08-27T08:41:08.549Z,7.20
2022-08-27T08:43:42.390Z,6.43
2022-08-27T08:46:23.772Z,7.30
2022-08-27T08:48:58.720Z,6.70
2022-08-27T08:51:34.542Z,6.75
2022-08-27T08:54:06.456Z,7.60
2022-08-27T08:56:45.341Z,6.95
2022-08-27T08:59:21.110Z,6.68
2022-08-27T09:01:53.311Z,6.63
2022-08-27T09:04:25.160Z,6.53
2022-08-27T09:06:59.869Z,6.78
2022-08-27T09:09:36.423Z,6.88
2022-08-27T09:12:15.644Z,6.75
2022-08-27T09:14:51.260Z,6.88
2022-08-27T09:17:22.691Z,6.90
2022-08-27T09:19:52.601Z,8.93
2022-08-27T09:22:28.733Z,6.55
2022-08-27T09:25:08.249Z,6.47
2022-08-27T09:27:41.888Z,7.03
2022-08-27T09:30:14.898Z,7.13
2022-08-27T09:32:46.441Z,6.38
2022-08-27T09:35:17.317Z,6.82
2022-08-27T09:37:49.546Z,7.13
2022-08-27T09:40:24.857Z,6.55
2022-08-27T09:42:57.740Z,6.95
2022-08-27T09:45:30.122Z,6.95
2022-08-27T09:48:09.651Z,6.72
2022-08-27T09:50:44.017Z,6.93
2022-08-27T09:53:22.146Z,6.35
2022-08-27T09:55:56.577Z,6.40
2022-08-27T09:58:30.122Z,7.47
2022-08-27T10:01:05.696Z,6.28
2022-08-27T10:03:37.056Z,6.88
2022-08-27T10:06:06.843Z,6.50
2022-08-27T10:08:42.692Z,6.57
2022-08-27T10:11:16.859Z,5.65
2022-08-27T10:13:53.760Z,6.13
2022-08-27T10:16:49.032Z,6.00
2022-08-27T10:19:30.923Z,5.85
2022-08-27T10:22:11.665Z,5.75
2022-08-27T10:24:56.037Z,7.30
2022-08-27T10:27:32.943Z,5.60
2022-08-27T10:30:09.761Z,5.93
2022-08-27T10:32:55.459Z,6.20
2022-08-27T10:35:30.333Z,5.55
2022-08-27T10:38:10.943Z,5.53
2022-08-27T10:40:49.742Z,5.47
2022-08-27T10:43:38.224Z,6.28
2022-08-27T10:46:26.945Z,6.03
2022-08-27T10:49:04.901Z,6.10
2022-08-27T10:51:44.107Z,5.90
2022-08-27T10:54:23.921Z,5.57
2022-08-27T10:57:26.245Z,6.05
2022-08-27T11:00:01.916Z,5.38
2022-08-27T11:02:37.747Z,5.30
2022-08-27T11:05:17.330Z,4.65
2022-08-27T11:07:52.843Z,5.60
2022-08-27T11:10:26.108Z,4.93
2022-08-27T11:12:58.385Z,5.15
2022-08-27T11:15:32.153Z,5.28
2022-08-27T11:18:06.328Z,5.47
2022-08-27T11:20:42.394Z,5.20
2022-08-27T11:23:19.093Z,5.07
2022-08-27T11:25:53.258Z,5.22
2022-08-27T11:28:30.008Z,4.50
2022-08-27T11:31:09.355Z,4.43
2022-08-27T11:36:34.388Z,6.05
2022-08-27T11:39:13.290Z,5.80
2022-08-27T11:41:59.892Z,5.80
2022-08-27T11:44:30.813Z,5.45
2022-08-27T11:47:11.948Z,6.85
2022-08-27T11:49:47.739Z,6.60
2022-08-27T11:52:29.325Z,5.78
2022-08-27T11:55:13.349Z,6.18
2022-08-27T11:57:43.490Z,6.32
2022-08-27T12:00:19.201Z,6.82
2022-08-27T12:02:59.935Z,6.03
2022-08-27T12:05:37.931Z,5.70
2022-08-27T12:08:21.254Z,7.05
2022-08-27T12:11:05.245Z,7.53
2022-08-27T12:13:40.851Z,6.72
2022-08-27T12:16:23.835Z,6.35
2022-08-27T12:19:08.958Z,6.32
2022-08-27T12:21:50.199Z,6.43
2022-08-27T12:24:55.793Z,6.15
2022-08-27T12:27:36.257Z,6.75
2022-08-27T12:30:21.385Z,6.53
2022-08-27T12:32:53.480Z,7.05
2022-08-27T12:35:25.053Z,7.40
2022-08-27T12:37:58.416Z,7.32
2022-08-27T12:40:31.895Z,6.93
2022-08-27T12:43:14.068Z,6.18
2022-08-27T12:45:47.504Z,6.93
2022-08-27T12:48:20.677Z,6.13
2022-08-27T12:50:54.935Z,7.30
2022-08-27T12:53:45.969Z,7.30
2022-08-27T12:56:29.638Z,6.85
2022-08-27T12:59:10.958Z,6.57
2022-08-27T13:01:58.009Z,6.82
2022-08-27T13:04:29.917Z,6.45
2022-08-27T13:06:59.755Z,6.78
2022-08-27T13:09:33.096Z,6.53
2022-08-27T13:12:03.936Z,6.68
2022-08-27T13:14:40.418Z,7.20
2022-08-27T13:17:12.720Z,6.35
2022-08-27T13:19:51.337Z,7.10
2022-08-27T13:22:26.213Z,7.30
2022-08-27T13:24:59.905Z,8.18
2022-08-27T13:27:31.081Z,8.20
2022-08-27T13:30:06.577Z,7.78
2022-08-27T13:32:36.288Z,8.52
2022-08-27T13:35:07.896Z,7.40
2022-08-27T13:37:43.089Z,8.13
2022-08-27T13:40:25.522Z,6.78
2022-08-27T13:42:55.421Z,6.88
2022-08-27T13:45:28.378Z,6.90
2022-08-27T13:47:57.893Z,6.97
2022-08-27T13:50:30.346Z,6.30
2022-08-27T13:53:24.524Z,6.28
2022-08-27T13:55:56.432Z,6.78
2022-08-27T13:58:28.561Z,7.07
2022-08-27T14:01:10.742Z,7.20
2022-08-27T14:03:50.274Z,6.22
2022-08-27T14:06:35.425Z,5.97
2022-08-27T14:09:19.929Z,6.63
2022-08-27T14:11:50.774Z,6.60
2022-08-27T14:14:20.670Z,5.88
2022-08-27T14:16:59.745Z,5.53
2022-08-27T14:19:33.374Z,5.55
2022-08-27T14:22:06.946Z,6.18
2022-08-27T14:24:36.414Z,5.53
2022-08-27T14:29:36.730Z,5.40
2022-08-27T14:32:08.730Z,5.75
2022-08-27T14:34:39.052Z,5.63
2022-08-27T14:37:08.632Z,5.68
2022-08-27T14:39:38.042Z,5.00
2022-08-27T14:42:12.043Z,5.63
2022-08-27T14:49:46.280Z,5.60
2022-08-27T14:52:17.376Z,6.00
2022-08-27T14:54:47.707Z,6.05
2022-08-27T14:57:17.086Z,5.55
2022-08-27T14:59:47.270Z,5.88
2022-08-27T15:04:49.090Z,5.22
2022-08-27T15:09:52.397Z,6.10
2022-08-27T15:12:25.624Z,5.75
2022-08-27T15:14:56.609Z,6.13
2022-08-27T15:17:34.393Z,5.85
2022-08-27T15:20:07.078Z,5.47
2022-08-27T15:22:37.998Z,6.13
2022-08-27T15:25:11.301Z,5.95
2022-08-27T15:27:40.860Z,5.82
2022-08-27T15:30:13.989Z,5.50
2022-08-27T15:32:47.199Z,5.70
2022-08-27T15:35:19.202Z,5.90
2022-08-27T15:37:49.014Z,5.78
2022-08-27T15:40:20.468Z,5.97
2022-08-27T15:43:02.492Z,5.75
2022-08-27T15:45:33.498Z,6.07
2022-08-27T15:48:04.944Z,5.68
2022-08-27T15:50:35.867Z,6.75
2022-08-27T15:53:07.524Z,5.97
2022-08-27T15:55:42.852Z,5.45
2022-08-27T15:58:13.495Z,5.40
2022-08-27T16:00:46.718Z,5.68
2022-08-27T16:03:18.488Z,5.30
2022-08-27T16:05:48.822Z,5.82
2022-08-27T16:08:18.673Z,6.28
2022-08-27T16:10:48.013Z,6.10
2022-08-27T16:13:18.537Z,5.82
2022-08-27T16:15:47.925Z,5.50
2022-08-27T16:18:20.210Z,5.55
2022-08-27T16:20:51.557Z,5.57
2022-08-27T16:23:21.552Z,5.78
2022-08-27T16:25:51.064Z,5.22
2022-08-27T16:28:20.972Z,5.35
2022-08-27T16:33:22.558Z,6.20
2022-08-27T16:35:52.836Z,6.35
2022-08-27T16:38:22.365Z,6.55
2022-08-27T16:43:25.311Z,6.88
2022-08-27T16:45:57.019Z,6.22
2022-08-27T16:48:45.881Z,6.53
2022-08-27T16:51:18.208Z,6.28
2022-08-27T16:53:49.796Z,6.97
2022-08-27T16:56:20.708Z,6.75
2022-08-27T16:58:56.437Z,6.38
2022-08-27T17:01:26.524Z,7.13
2022-08-27T17:04:23.905Z,7.07
2022-08-27T17:06:51.807Z,6.72
2022-08-27T17:09:21.664Z,6.95
2022-08-27T17:11:57.229Z,7.07
2022-08-27T17:14:26.782Z,7.18
2022-08-27T17:16:57.196Z,6.75
2022-08-27T17:19:28.437Z,7.47
2022-08-27T17:21:58.444Z,7.25
2022-08-27T17:24:27.829Z,6.80
2022-08-27T17:26:57.784Z,7.55
2022-08-27T17:29:27.721Z,7.45
2022-08-27T17:31:57.213Z,7.93
2022-08-27T17:34:29.009Z,7.10
2022-08-27T17:36:58.800Z,7.75
2022-08-27T17:41:58.668Z,7.60
2022-08-27T17:44:32.346Z,6.78
2022-08-27T17:47:03.644Z,7.38
2022-08-27T17:49:36.139Z,8.35
2022-08-27T17:52:09.976Z,9.05
2022-08-27T17:54:42.762Z,8.75
2022-08-27T17:57:16.805Z,7.72
2022-08-27T17:59:47.000Z,7.93
2022-08-27T18:02:21.560Z,7.90
2022-08-27T18:04:53.179Z,8.40
2022-08-27T18:07:23.046Z,8.18
2022-08-27T18:09:53.305Z,8.00
2022-08-27T18:12:25.337Z,8.18
2022-08-27T18:15:04.679Z,8.93
2022-08-27T18:17:34.113Z,9.68
2022-08-27T18:20:09.713Z,8.57
2022-08-27T18:22:40.883Z,9.00
2022-08-27T18:25:13.463Z,8.60
2022-08-27T18:27:45.644Z,8.63
2022-08-27T18:30:15.445Z,9.30
2022-08-27T18:32:44.937Z,9.73
2022-08-27T18:35:20.024Z,8.65
2022-08-27T18:37:50.262Z,8.25
2022-08-27T18:40:22.161Z,8.13
2022-08-27T18:42:52.714Z,8.95
2022-08-27T18:45:28.520Z,8.07
2022-08-27T18:48:00.942Z,10.68
2022-08-27T18:50:31.817Z,9.05
2022-08-27T18:53:02.165Z,8.73
2022-08-27T18:55:31.639Z,8.68
2022-08-27T18:58:01.203Z,9.50
2022-08-27T19:00:31.187Z,7.80
2022-08-27T19:03:02.009Z,8.80
2022-08-27T19:05:33.714Z,9.13
2022-08-27T19:08:06.096Z,8.18
2022-08-27T19:10:36.189Z,7.85
2022-08-27T19:13:05.639Z,8.88
2022-08-27T19:15:35.054Z,9.50
2022-08-27T19:18:04.994Z,10.80
2022-08-27T19:20:36.169Z,9.52
2022-08-27T19:23:05.927Z,13.43
2022-08-27T19:25:35.813Z,12.07
2022-08-27T19:28:05.780Z,11.25
2022-08-27T19:30:35.493Z,14.82
2022-08-27T19:33:05.126Z,13.00
2022-08-27T19:35:37.415Z,12.52
2022-08-27T19:38:08.752Z,12.60
2022-08-27T19:40:39.017Z,13.82
2022-08-27T19:43:09.459Z,12.38
2022-08-27T19:45:40.254Z,12.40
2022-08-27T19:48:12.667Z,12.02
2022-08-27T19:50:45.028Z,12.32
2022-08-27T19:53:15.263Z,12.95
2022-08-27T19:55:46.286Z,13.80
2022-08-27T19:58:19.760Z,13.60
2022-08-27T20:00:49.622Z,13.27
2022-08-27T20:05:53.118Z,12.65
2022-08-27T20:08:23.374Z,13.65
2022-08-27T20:10:52.778Z,13.82
2022-08-27T20:13:22.668Z,13.38
2022-08-27T20:18:23.354Z,12.68
2022-08-27T20:26:00.471Z,11.10
2022-08-27T20:28:46.052Z,12.77
2022-08-27T20:31:16.071Z,11.88
2022-08-27T20:33:45.806Z,11.90
2022-08-27T20:36:16.694Z,12.80
2022-08-27T20:38:46.762Z,12.07
2022-08-27T20:41:16.286Z,13.60
2022-08-27T20:43:45.604Z,12.17
2022-08-27T20:46:16.660Z,12.65
2022-08-27T20:51:16.934Z,13.18
2022-08-27T20:53:46.544Z,11.35
2022-08-27T20:56:16.021Z,11.55
2022-08-27T20:59:02.845Z,12.60
2022-08-27T21:01:32.806Z,12.45
2022-08-27T21:04:02.354Z,12.60
2022-08-27T21:06:33.647Z,13.87
2022-08-27T21:09:03.934Z,12.98
2022-08-27T21:11:33.602Z,14.48
2022-08-27T21:14:03.132Z,14.00
2022-08-27T21:16:33.154Z,14.27
2022-08-27T21:19:02.653Z,13.00
2022-08-27T21:21:33.568Z,15.33
2022-08-27T21:24:03.462Z,15.02
2022-08-27T21:26:32.913Z,13.50
2022-08-27T21:29:02.425Z,13.80
2022-08-27T21:31:32.708Z,14.23
2022-08-27T21:34:02.119Z,14.38
2022-08-27T21:36:33.314Z,14.32
2022-08-27T21:39:03.078Z,15.25
2022-08-27T21:41:37.174Z,14.77
2022-08-27T21:44:07.394Z,14.43
2022-08-27T21:46:37.314Z,14.25
2022-08-27T21:49:07.015Z,14.23
2022-08-27T21:51:38.448Z,14.35
2022-08-27T21:54:07.816Z,14.05
2022-08-27T21:56:38.631Z,15.07
2022-08-27T21:59:08.957Z,14.67
2022-08-27T22:01:39.565Z,17.38
2022-08-27T22:04:09.214Z,13.48
2022-08-27T22:06:40.037Z,14.40
2022-08-27T22:09:09.642Z,14.18
2022-08-27T22:11:39.029Z,15.52
2022-08-27T22:14:08.460Z,15.52
2022-08-27T22:16:41.748Z,14.10
2022-08-27T22:19:11.348Z,15.80
2022-08-27T22:21:42.302Z,15.43
2022-08-27T22:24:12.976Z,14.82
2022-08-27T22:26:42.476Z,14.57
2022-08-27T22:29:11.820Z,13.57
2022-08-27T22:31:41.991Z,14.68
2022-08-27T22:34:13.361Z,14.53
2022-08-27T22:36:47.996Z,13.93
2022-08-27T22:39:17.534Z,13.75
2022-08-27T22:41:49.413Z,13.82
2022-08-27T22:44:19.060Z,15.00
2022-08-27T22:46:49.124Z,13.43
2022-08-27T22:49:18.703Z,13.15
2022-08-27T22:51:50.565Z,14.03
2022-08-27T22:54:20.948Z,13.45
2022-08-27T22:56:50.260Z,12.55
2022-08-27T22:59:19.881Z,14.43
2022-08-27T23:01:49.657Z,14.20
2022-08-27T23:04:19.840Z,13.35
2022-08-27T23:06:51.353Z,14.65
2022-08-27T23:09:21.091Z,14.07
2022-08-27T23:11:50.930Z,14.57
2022-08-27T23:14:20.461Z,13.50
2022-08-27T23:16:50.144Z,14.63
2022-08-27T23:19:20.000Z,14.52
2022-08-27T23:21:51.134Z,15.00
2022-08-27T23:24:21.500Z,15.48
2022-08-27T23:27:08.037Z,15.65
2022-08-27T23:29:38.297Z,15.30
2022-08-27T23:32:08.007Z,16.38
2022-08-27T23:34:37.340Z,13.70
2022-08-27T23:37:09.035Z,15.80
2022-08-27T23:39:38.370Z,14.70
2022-08-27T23:42:08.785Z,14.17
2022-08-27T23:44:38.474Z,14.50
2022-08-27T23:47:07.957Z,14.20
2022-08-27T23:49:39.210Z,13.02
2022-08-27T23:52:09.964Z,13.65
2022-08-27T23:54:40.549Z,12.23
2022-08-27T23:57:10.084Z,13.63
2022-08-27T23:59:39.834Z,13.88
